createdAt,value
2022-12-06T00:02:50.087Z,59.95
2022-12-06T00:07:54.572Z,60.10
2022-12-06T00:12:57.735Z,60.08
2022-12-06T00:23:04.445Z,60.37
2022-12-06T00:28:07.223Z,60.28
2022-12-06T00:33:09.932Z,60.42
2022-12-06T00:38:14.055Z,60.44
2022-12-06T00:43:16.800Z,60.48
2022-12-06T00:48:19.563Z,60.64
2022-12-06T00:53:24.485Z,60.54
2022-12-06T00:58:27.449Z,60.56
2022-12-06T01:03:34.953Z,60.55
2022-12-06T01:08:40.375Z,60.50
2022-12-06T01:13:43.874Z,60.70
2022-12-06T01:18:47.748Z,60.79
2022-12-06T01:23:54.178Z,60.66
2022-12-06T01:28:58.360Z,60.69
2022-12-06T01:34:01.142Z,60.83
2022-12-06T01:39:10.275Z,60.74
2022-12-06T01:44:41.506Z,60.87
2022-12-06T01:49:47.012Z,60.71
2022-12-06T01:54:51.349Z,60.77
2022-12-06T01:59:54.295Z,60.92
2022-12-06T02:04:58.932Z,61.14
2022-12-06T02:10:04.039Z,61.07
2022-12-06T02:15:07.766Z,61.13
2022-12-06T02:20:27.828Z,61.12
2022-12-06T02:26:00.281Z,61.16
2022-12-06T02:31:12.240Z,61.00
2022-12-06T02:36:22.977Z,61.10
2022-12-06T02:41:31.425Z,61.10
2022-12-06T02:46:38.373Z,60.96
2022-12-06T02:51:42.016Z,61.15
2022-12-06T02:56:45.075Z,61.17
2022-12-06T03:01:53.717Z,61.21
2022-12-06T03:07:13.200Z,61.22
2022-12-06T03:12:25.670Z,61.20
2022-12-06T03:17:38.642Z,61.24
2022-12-06T03:22:48.421Z,61.25
2022-12-06T03:27:54.560Z,61.44
2022-12-06T03:32:59.088Z,61.34
2022-12-06T03:38:12.705Z,61.31
2022-12-06T03:43:16.470Z,61.06
2022-12-06T03:48:23.896Z,61.11
2022-12-06T03:53:27.276Z,60.97
2022-12-06T03:58:30.012Z,61.18
2022-12-06T04:03:34.495Z,61.60
2022-12-06T04:08:38.214Z,62.30
2022-12-06T04:13:41.151Z,62.41
2022-12-06T04:18:45.354Z,62.63
2022-12-06T04:23:50.210Z,62.59
2022-12-06T04:29:11.697Z,62.82
2022-12-06T04:34:33.729Z,63.09
2022-12-06T04:39:36.750Z,63.06
2022-12-06T04:44:39.656Z,62.86
2022-12-06T04:49:43.845Z,63.14
2022-12-06T04:54:47.102Z,63.21
2022-12-06T04:59:51.120Z,63.59
2022-12-06T05:04:55.254Z,63.71
2022-12-06T05:09:58.452Z,63.69
2022-12-06T05:15:01.500Z,63.83
2022-12-06T05:20:07.209Z,64.04
2022-12-06T05:25:11.136Z,64.09
2022-12-06T05:30:14.488Z,64.39
2022-12-06T05:35:18.817Z,64.50
2022-12-06T05:40:21.636Z,64.36
2022-12-06T05:45:24.823Z,64.45
2022-12-06T05:50:29.028Z,64.60
2022-12-06T05:55:34.069Z,64.75
2022-12-06T06:00:37.075Z,64.72
2022-12-06T06:05:46.458Z,64.79
2022-12-06T06:10:49.235Z,64.93
2022-12-06T06:15:52.110Z,65.05
2022-12-06T06:20:59.697Z,65.20
2022-12-06T06:26:07.683Z,65.22
2022-12-06T06:31:10.806Z,65.44
2022-12-06T06:36:14.946Z,65.57
2022-12-06T06:41:17.695Z,65.51
2022-12-06T06:46:20.527Z,65.72
2022-12-06T06:51:24.707Z,65.78
2022-12-06T06:56:27.570Z,65.92
2022-12-06T07:01:30.513Z,65.88
2022-12-06T07:06:34.722Z,66.10
2022-12-06T07:11:37.561Z,66.30
2022-12-06T07:16:40.287Z,66.20
2022-12-06T07:21:44.433Z,66.32
2022-12-06T07:26:47.208Z,66.31
2022-12-06T07:31:49.908Z,66.35
2022-12-06T07:36:54.016Z,66.26
2022-12-06T07:42:10.707Z,66.47
2022-12-06T07:47:24.160Z,66.68
2022-12-06T07:52:31.933Z,66.49
2022-12-06T07:57:40.056Z,66.59
2022-12-06T08:02:46.040Z,66.79
2022-12-06T08:07:50.249Z,66.61
2022-12-06T08:12:53.040Z,66.32
2022-12-06T08:17:55.893Z,65.85
2022-12-06T08:23:00.098Z,65.62
2022-12-06T08:28:03.210Z,65.46
2022-12-06T08:33:06.109Z,65.18
2022-12-06T08:38:10.380Z,64.98
2022-12-06T08:43:13.163Z,64.64
2022-12-06T08:48:15.916Z,62.68
2022-12-06T08:53:20.050Z,49.89
2022-12-06T08:58:22.813Z,52.04
2022-12-06T09:03:26.560Z,53.53
2022-12-06T09:08:31.354Z,56.25
2022-12-06T09:13:34.620Z,57.23
2022-12-06T09:18:37.645Z,57.73
2022-12-06T09:23:42.013Z,57.44
2022-12-06T09:28:49.271Z,57.55
2022-12-06T09:33:52.745Z,57.55
2022-12-06T09:39:01.095Z,57.60
2022-12-06T09:44:20.406Z,57.86
2022-12-06T09:49:37.654Z,58.07
2022-12-06T09:55:00.314Z,58.14
2022-12-06T10:00:11.845Z,58.39
2022-12-06T10:05:28.839Z,58.47
2022-12-06T10:10:47.563Z,58.52
2022-12-06T10:16:02.898Z,58.67
2022-12-06T10:21:18.580Z,58.77
2022-12-06T10:26:30.725Z,58.93
2022-12-06T10:31:44.584Z,58.91
2022-12-06T10:36:59.897Z,59.13
2022-12-06T10:42:12.736Z,59.19
2022-12-06T10:47:20.712Z,59.51
2022-12-06T10:52:35.884Z,59.34
2022-12-06T10:57:47.232Z,59.59
2022-12-06T11:02:58.275Z,59.71
2022-12-06T11:08:08.561Z,59.91
2022-12-06T11:13:21.100Z,59.75
2022-12-06T11:18:26.621Z,59.79
2022-12-06T11:23:39.765Z,59.95
2022-12-06T11:28:49.341Z,59.93
2022-12-06T11:33:52.394Z,59.97
2022-12-06T11:38:55.166Z,60.14
2022-12-06T11:43:59.685Z,60.13
2022-12-06T11:49:15.036Z,60.04
2022-12-06T11:54:25.408Z,60.16
2022-12-06T11:59:31.905Z,60.27
2022-12-06T12:04:37.581Z,60.38
2022-12-06T12:09:49.643Z,60.49
2022-12-06T12:14:58.061Z,60.63
2022-12-06T12:20:05.208Z,60.70
2022-12-06T12:25:25.424Z,60.58
2022-12-06T12:30:37.382Z,60.85
2022-12-06T12:35:42.207Z,60.88
2022-12-06T12:40:48.677Z,60.93
2022-12-06T12:46:18.734Z,61.11
2022-12-06T12:51:27.782Z,61.05
2022-12-06T12:56:34.050Z,61.07
2022-12-06T13:01:41.539Z,60.91
2022-12-06T13:06:49.790Z,60.90
2022-12-06T13:11:58.703Z,60.93
2022-12-06T13:17:08.494Z,61.04
2022-12-06T13:22:20.028Z,61.08
2022-12-06T13:27:24.789Z,61.34
2022-12-06T13:32:34.155Z,61.25
2022-12-06T13:37:43.223Z,61.33
2022-12-06T13:42:46.884Z,61.61
2022-12-06T13:47:51.975Z,61.78
2022-12-06T13:53:01.999Z,61.85
2022-12-06T13:58:49.589Z,61.97
2022-12-06T14:03:57.680Z,62.04
2022-12-06T14:09:00.639Z,62.47
2022-12-06T14:14:08.799Z,63.21
2022-12-06T14:19:19.735Z,63.34
2022-12-06T14:24:27.572Z,63.10
2022-12-06T14:29:30.830Z,62.99
2022-12-06T14:34:36.798Z,62.92
2022-12-06T14:39:40.099Z,62.65
2022-12-06T14:44:49.204Z,62.75
2022-12-06T14:50:13.003Z,62.86
2022-12-06T14:55:19.450Z,63.06
2022-12-06T15:00:27.415Z,63.49
2022-12-06T15:05:34.215Z,63.52
2022-12-06T15:10:37.063Z,63.71
2022-12-06T15:15:41.949Z,63.55
2022-12-06T15:20:47.216Z,63.28
2022-12-06T15:25:50.182Z,63.25
2022-12-06T15:30:54.432Z,62.89
2022-12-06T15:35:59.234Z,62.61
2022-12-06T15:41:01.985Z,62.23
2022-12-06T15:46:05.820Z,61.87
2022-12-06T15:51:20.181Z,61.66
2022-12-06T15:56:28.213Z,61.31
2022-12-06T16:01:38.018Z,60.81
2022-12-06T16:06:45.800Z,60.60
2022-12-06T16:11:48.804Z,60.44
2022-12-06T16:16:51.683Z,60.00
2022-12-06T16:21:58.647Z,59.86
2022-12-06T16:27:01.625Z,59.66
2022-12-06T16:32:04.474Z,59.57
2022-12-06T16:37:11.160Z,59.40
2022-12-06T16:42:13.997Z,59.49
2022-12-06T16:47:16.824Z,59.45
2022-12-06T16:52:21.162Z,59.65
2022-12-06T16:57:24.158Z,59.38
2022-12-06T17:02:29.093Z,59.60
2022-12-06T17:07:34.528Z,59.28
2022-12-06T17:12:37.454Z,59.34
2022-12-06T17:17:40.296Z,59.36
2022-12-06T17:22:44.872Z,59.24
2022-12-06T17:27:47.733Z,59.51
2022-12-06T17:32:50.469Z,59.51
2022-12-06T17:37:54.825Z,59.36
2022-12-06T17:43:00.467Z,59.38
2022-12-06T17:48:03.290Z,59.44
2022-12-06T17:53:07.626Z,59.50
2022-12-06T17:58:10.427Z,59.44
2022-12-06T18:03:13.309Z,59.41
2022-12-06T18:08:17.464Z,59.59
2022-12-06T18:13:20.364Z,59.48
2022-12-06T18:18:23.137Z,59.59
2022-12-06T18:23:27.482Z,59.42
2022-12-06T18:28:30.282Z,59.44
2022-12-06T18:33:34.293Z,58.96
2022-12-06T18:38:38.501Z,59.39
2022-12-06T18:43:42.075Z,59.21
2022-12-06T18:48:46.663Z,59.32
2022-12-06T18:53:52.026Z,59.05
2022-12-06T18:58:54.854Z,59.16
2022-12-06T19:04:00.633Z,58.98
2022-12-06T19:09:07.254Z,59.12
2022-12-06T19:14:10.359Z,59.13
2022-12-06T19:19:17.024Z,59.21
2022-12-06T19:24:23.159Z,59.04
2022-12-06T19:29:26.821Z,59.05
2022-12-06T19:34:30.418Z,58.90
2022-12-06T19:39:34.556Z,58.97
2022-12-06T19:44:37.447Z,59.03
2022-12-06T19:49:40.329Z,58.82
2022-12-06T19:54:45.129Z,58.58
2022-12-06T19:59:47.968Z,58.67
2022-12-06T20:04:51.013Z,58.46
2022-12-06T20:09:55.283Z,58.57
2022-12-06T20:14:58.042Z,58.71
2022-12-06T20:20:02.099Z,58.63
2022-12-06T20:25:07.525Z,58.55
2022-12-06T20:30:11.394Z,58.50
2022-12-06T20:35:14.253Z,58.52
2022-12-06T20:40:18.721Z,58.34
2022-12-06T20:45:21.533Z,58.27
2022-12-06T20:50:24.617Z,58.28
2022-12-06T20:55:28.757Z,58.15
2022-12-06T21:00:33.144Z,58.30
2022-12-06T21:05:36.160Z,58.24
2022-12-06T21:11:00.024Z,58.18
2022-12-06T21:16:05.028Z,58.10
2022-12-06T21:21:08.207Z,58.04
2022-12-06T21:26:12.874Z,57.79
2022-12-06T21:31:15.791Z,58.14
2022-12-06T21:36:18.644Z,58.18
2022-12-06T21:41:23.330Z,58.28
2022-12-06T21:46:27.684Z,58.21
2022-12-06T21:51:32.268Z,58.25
2022-12-06T21:56:38.147Z,58.25
2022-12-06T22:01:40.960Z,58.18
2022-12-06T22:06:43.853Z,58.19
2022-12-06T22:11:48.076Z,58.11
2022-12-06T22:16:51.162Z,58.43
2022-12-06T22:21:55.579Z,58.51
2022-12-06T22:26:59.714Z,58.38
2022-12-06T22:32:02.475Z,58.63
2022-12-06T22:37:05.325Z,58.54
2022-12-06T22:42:09.453Z,58.19
2022-12-06T22:47:12.404Z,58.24
2022-12-06T22:52:15.260Z,58.39
2022-12-06T22:57:19.370Z,58.61
2022-12-06T23:02:22.344Z,58.41
2022-12-06T23:07:25.181Z,58.51
2022-12-06T23:12:29.441Z,58.35
2022-12-06T23:17:32.246Z,58.63
2022-12-06T23:22:35.133Z,58.40
2022-12-06T23:27:39.287Z,58.51
2022-12-06T23:32:42.008Z,58.73
2022-12-06T23:37:44.845Z,58.67
2022-12-06T23:42:48.938Z,58.91
2022-12-06T23:47:51.701Z,58.63
2022-12-06T23:52:54.542Z,58.69
2022-12-06T23:57:58.673Z,58.81
